sensor_id;sensor_type;location;lat;lon;timestamp;pressure;altitude;pressure_sealevel;temperature;humidity
69247;BME280;56358;56.328;43.992;2023-02-14T00:00:29;99323.13;;;-5.08;74.34
69247;BME280;56358;56.328;43.992;2023-02-14T00:02:29;99352.00;;;-4.85;73.76
69247;BME280;56358;56.328;43.992;2023-02-14T00:04:30;99355.63;;;-4.90;73.80
69247;BME280;56358;56.328;43.992;2023-02-14T00:06:31;99333.34;;;-5.01;73.75
69247;BME280;56358;56.328;43.992;2023-02-14T00:08:35;99345.38;;;-4.96;73.95
69247;BME280;56358;56.328;43.992;2023-02-14T00:10:36;99332.41;;;-4.99;73.92
69247;BME280;56358;56.328;43.992;2023-02-14T00:12:36;99339.06;;;-4.89;74.04
69247;BME280;56358;56.328;43.992;2023-02-14T00:14:37;99339.19;;;-4.93;74.15
69247;BME280;56358;56.328;43.992;2023-02-14T00:16:56;99354.56;;;-4.84;73.98
69247;BME280;56358;56.328;43.992;2023-02-14T00:18:57;99343.28;;;-4.84;73.99
69247;BME280;56358;56.328;43.992;2023-02-14T00:21:04;99340.53;;;-4.81;73.61
69247;BME280;56358;56.328;43.992;2023-02-14T00:23:04;99344.13;;;-4.84;73.69
69247;BME280;56358;56.328;43.992;2023-02-14T00:25:05;99347.50;;;-4.80;73.75
69247;BME280;56358;56.328;43.992;2023-02-14T00:27:06;99344.75;;;-4.77;73.61
69247;BME280;56358;56.328;43.992;2023-02-14T00:29:12;99341.13;;;-4.73;73.55
69247;BME280;56358;56.328;43.992;2023-02-14T00:31:13;99339.34;;;-4.71;73.31
69247;BME280;56358;56.328;43.992;2023-02-14T00:33:13;99336.72;;;-4.71;73.32
69247;BME280;56358;56.328;43.992;2023-02-14T00:35:14;99326.69;;;-4.83;72.88
69247;BME280;56358;56.328;43.992;2023-02-14T00:37:15;99333.28;;;-4.73;73.42
69247;BME280;56358;56.328;43.992;2023-02-14T00:39:17;99340.28;;;-4.74;73.16
69247;BME280;56358;56.328;43.992;2023-02-14T00:41:18;99334.16;;;-4.73;72.88
69247;BME280;56358;56.328;43.992;2023-02-14T00:43:18;99329.03;;;-4.76;72.94
69247;BME280;56358;56.328;43.992;2023-02-14T00:45:19;99323.78;;;-4.76;72.94
69247;BME280;56358;56.328;43.992;2023-02-14T00:47:19;99328.06;;;-4.73;73.00
69247;BME280;56358;56.328;43.992;2023-02-14T00:49:20;99330.78;;;-4.76;72.72
69247;BME280;56358;56.328;43.992;2023-02-14T00:51:21;99309.22;;;-4.83;72.84
69247;BME280;56358;56.328;43.992;2023-02-14T00:53:22;99321.28;;;-4.79;73.14
69247;BME280;56358;56.328;43.992;2023-02-14T00:55:22;99323.13;;;-4.82;73.39
69247;BME280;56358;56.328;43.992;2023-02-14T00:57:23;99307.72;;;-4.90;73.36
69247;BME280;56358;56.328;43.992;2023-02-14T00:59:24;99296.72;;;-5.00;73.35
69247;BME280;56358;56.328;43.992;2023-02-14T01:01:24;99328.44;;;-4.84;73.24
69247;BME280;56358;56.328;43.992;2023-02-14T01:03:25;99322.09;;;-4.77;73.26
69247;BME280;56358;56.328;43.992;2023-02-14T01:05:26;99340.44;;;-4.78;72.83
69247;BME280;56358;56.328;43.992;2023-02-14T01:07:27;99287.00;;;-4.96;72.96
69247;BME280;56358;56.328;43.992;2023-02-14T01:09:27;99330.84;;;-4.78;73.14
69247;BME280;56358;56.328;43.992;2023-02-14T01:11:28;99317.00;;;-4.81;73.13
69247;BME280;56358;56.328;43.992;2023-02-14T01:13:29;99320.69;;;-4.87;73.52
69247;BME280;56358;56.328;43.992;2023-02-14T01:15:30;99325.75;;;-4.82;73.23
69247;BME280;56358;56.328;43.992;2023-02-14T01:17:30;99328.59;;;-4.89;72.94
69247;BME280;56358;56.328;43.992;2023-02-14T01:19:52;99334.78;;;-4.91;73.27
69247;BME280;56358;56.328;43.992;2023-02-14T01:21:53;99331.16;;;-4.87;73.18
69247;BME280;56358;56.328;43.992;2023-02-14T01:23:57;99327.88;;;-4.94;73.35
69247;BME280;56358;56.328;43.992;2023-02-14T01:25:57;99328.47;;;-4.85;73.27
69247;BME280;56358;56.328;43.992;2023-02-14T01:27:58;99326.75;;;-4.86;73.25
69247;BME280;56358;56.328;43.992;2023-02-14T01:29:59;99323.19;;;-4.84;73.02
69247;BME280;56358;56.328;43.992;2023-02-14T01:31:59;99325.88;;;-4.85;73.46
69247;BME280;56358;56.328;43.992;2023-02-14T01:34:00;99318.09;;;-4.87;73.27
69247;BME280;56358;56.328;43.992;2023-02-14T01:36:01;99291.59;;;-5.03;73.23
69247;BME280;56358;56.328;43.992;2023-02-14T01:38:02;99311.25;;;-4.91;73.32
69247;BME280;56358;56.328;43.992;2023-02-14T01:40:05;99317.97;;;-4.84;73.05
69247;BME280;56358;56.328;43.992;2023-02-14T01:42:09;99325.81;;;-4.84;72.92
69247;BME280;56358;56.328;43.992;2023-02-14T01:46:14;99315.78;;;-4.96;73.13
69247;BME280;56358;56.328;43.992;2023-02-14T01:48:14;99286.84;;;-5.17;73.32
69247;BME280;56358;56.328;43.992;2023-02-14T01:50:24;99323.63;;;-4.96;73.60
69247;BME280;56358;56.328;43.992;2023-02-14T01:52:35;99324.50;;;-4.97;73.17
69247;BME280;56358;56.328;43.992;2023-02-14T01:54:45;99334.84;;;-4.93;73.17
69247;BME280;56358;56.328;43.992;2023-02-14T01:56:50;99332.34;;;-4.97;73.12
69247;BME280;56358;56.328;43.992;2023-02-14T01:58:56;99345.47;;;-4.99;73.21
69247;BME280;56358;56.328;43.992;2023-02-14T02:01:00;99293.34;;;-5.30;73.24
69247;BME280;56358;56.328;43.992;2023-02-14T02:03:02;99343.91;;;-5.05;73.27
69247;BME280;56358;56.328;43.992;2023-02-14T02:05:04;99343.81;;;-5.01;73.57
69247;BME280;56358;56.328;43.992;2023-02-14T02:07:08;99335.03;;;-4.99;73.37
69247;BME280;56358;56.328;43.992;2023-02-14T02:09:17;99312.84;;;-5.14;73.13
69247;BME280;56358;56.328;43.992;2023-02-14T02:11:20;99335.88;;;-4.98;73.13
69247;BME280;56358;56.328;43.992;2023-02-14T02:13:21;99336.97;;;-5.06;73.14
69247;BME280;56358;56.328;43.992;2023-02-14T02:15:25;99338.47;;;-4.98;73.31
69247;BME280;56358;56.328;43.992;2023-02-14T02:22:14;99339.53;;;-5.04;73.59
69247;BME280;56358;56.328;43.992;2023-02-14T02:27:03;99338.44;;;-4.97;73.28
69247;BME280;56358;56.328;43.992;2023-02-14T02:29:41;99343.09;;;-5.07;73.18
69247;BME280;56358;56.328;43.992;2023-02-14T02:41:00;99350.53;;;-4.93;73.51
69247;BME280;56358;56.328;43.992;2023-02-14T02:52:13;99266.28;;;-5.28;73.34
69247;BME280;56358;56.328;43.992;2023-02-14T02:54:45;99306.56;;;-5.08;73.18
69247;BME280;56358;56.328;43.992;2023-02-14T02:56:51;99339.78;;;-4.85;73.34
69247;BME280;56358;56.328;43.992;2023-02-14T02:59:22;99343.28;;;-4.84;73.15
69247;BME280;56358;56.328;43.992;2023-02-14T03:01:28;99342.31;;;-4.82;73.37
69247;BME280;56358;56.328;43.992;2023-02-14T03:03:31;99342.25;;;-4.80;73.20
69247;BME280;56358;56.328;43.992;2023-02-14T03:05:52;99339.06;;;-4.89;73.55
69247;BME280;56358;56.328;43.992;2023-02-14T03:07:53;99336.38;;;-4.87;73.67
69247;BME280;56358;56.328;43.992;2023-02-14T03:09:58;99343.47;;;-4.91;73.56
69247;BME280;56358;56.328;43.992;2023-02-14T03:14:34;99345.88;;;-4.84;73.44
69247;BME280;56358;56.328;43.992;2023-02-14T03:17:03;99347.09;;;-4.95;73.21
69247;BME280;56358;56.328;43.992;2023-02-14T03:21:32;99344.72;;;-5.02;73.40
69247;BME280;56358;56.328;43.992;2023-02-14T03:23:47;99351.47;;;-4.95;73.49
69247;BME280;56358;56.328;43.992;2023-02-14T03:26:04;99354.78;;;-4.90;73.53
69247;BME280;56358;56.328;43.992;2023-02-14T03:30:27;99357.53;;;-4.95;73.34
69247;BME280;56358;56.328;43.992;2023-02-14T03:32:47;99366.63;;;-5.07;73.55
69247;BME280;56358;56.328;43.992;2023-02-14T03:35:04;99360.56;;;-5.07;73.76
69247;BME280;56358;56.328;43.992;2023-02-14T03:39:26;99370.00;;;-5.03;73.49
69247;BME280;56358;56.328;43.992;2023-02-14T03:41:32;99371.66;;;-5.00;73.55
69247;BME280;56358;56.328;43.992;2023-02-14T03:43:56;99369.16;;;-5.03;73.54
69247;BME280;56358;56.328;43.992;2023-02-14T03:46:12;99376.94;;;-5.02;73.54
69247;BME280;56358;56.328;43.992;2023-02-14T03:48:17;99372.84;;;-5.11;73.44
69247;BME280;56358;56.328;43.992;2023-02-14T03:50:19;99376.47;;;-5.15;73.36
69247;BME280;56358;56.328;43.992;2023-02-14T03:52:20;99373.25;;;-5.23;73.66
69247;BME280;56358;56.328;43.992;2023-02-14T03:54:24;99371.44;;;-5.21;73.76
69247;BME280;56358;56.328;43.992;2023-02-14T03:56:27;99374.81;;;-5.17;73.41
69247;BME280;56358;56.328;43.992;2023-02-14T03:58:33;99383.69;;;-5.23;73.57
69247;BME280;56358;56.328;43.992;2023-02-14T04:00:39;99371.03;;;-5.35;73.87
69247;BME280;56358;56.328;43.992;2023-02-14T04:02:52;99376.97;;;-5.30;73.93
69247;BME280;56358;56.328;43.992;2023-02-14T04:04:54;99378.84;;;-5.35;73.88
69247;BME280;56358;56.328;43.992;2023-02-14T04:06:57;99392.09;;;-5.42;73.87
69247;BME280;56358;56.328;43.992;2023-02-14T04:08:58;99385.09;;;-5.41;73.98
69247;BME280;56358;56.328;43.992;2023-02-14T04:11:00;99320.38;;;-5.90;74.30
69247;BME280;56358;56.328;43.992;2023-02-14T04:13:02;99380.13;;;-5.49;74.15
69247;BME280;56358;56.328;43.992;2023-02-14T04:15:03;99352.06;;;-5.72;74.60
69247;BME280;56358;56.328;43.992;2023-02-14T04:17:05;99389.78;;;-5.52;74.21
69247;BME280;56358;56.328;43.992;2023-02-14T04:19:24;99350.44;;;-5.76;74.52
69247;BME280;56358;56.328;43.992;2023-02-14T04:21:25;99389.06;;;-5.58;74.72
69247;BME280;56358;56.328;43.992;2023-02-14T04:23:25;99384.72;;;-5.57;74.75
69247;BME280;56358;56.328;43.992;2023-02-14T04:25:27;99395.06;;;-5.54;74.72
69247;BME280;56358;56.328;43.992;2023-02-14T04:27:27;99409.03;;;-5.55;74.79
69247;BME280;56358;56.328;43.992;2023-02-14T04:29:28;99406.47;;;-5.57;74.76
69247;BME280;56358;56.328;43.992;2023-02-14T04:31:29;99391.78;;;-5.61;75.13
69247;BME280;56358;56.328;43.992;2023-02-14T04:33:30;99400.41;;;-5.59;75.08
69247;BME280;56358;56.328;43.992;2023-02-14T04:35:30;99404.69;;;-5.56;74.84
69247;BME280;56358;56.328;43.992;2023-02-14T04:37:31;99402.09;;;-5.56;74.48
69247;BME280;56358;56.328;43.992;2023-02-14T04:39:32;99407.31;;;-5.56;74.26
69247;BME280;56358;56.328;43.992;2023-02-14T04:41:33;99428.09;;;-5.51;74.45
69247;BME280;56358;56.328;43.992;2023-02-14T04:43:33;99409.91;;;-5.56;74.48
69247;BME280;56358;56.328;43.992;2023-02-14T04:45:34;99420.38;;;-5.56;74.54
69247;BME280;56358;56.328;43.992;2023-02-14T04:47:35;99425.53;;;-5.55;74.85
69247;BME280;56358;56.328;43.992;2023-02-14T04:49:35;99433.31;;;-5.51;74.67
69247;BME280;56358;56.328;43.992;2023-02-14T04:51:36;99417.63;;;-5.51;74.56
69247;BME280;56358;56.328;43.992;2023-02-14T04:53:37;99425.31;;;-5.47;74.78
69247;BME280;56358;56.328;43.992;2023-02-14T04:55:39;99424.31;;;-5.43;74.58
69247;BME280;56358;56.328;43.992;2023-02-14T04:57:40;99441.56;;;-5.35;73.89
69247;BME280;56358;56.328;43.992;2023-02-14T04:59:41;99393.44;;;-5.58;74.12
69247;BME280;56358;56.328;43.992;2023-02-14T05:01:42;99424.28;;;-5.41;73.97
69247;BME280;56358;56.328;43.992;2023-02-14T05:03:43;99432.78;;;-5.33;74.06
69247;BME280;56358;56.328;43.992;2023-02-14T05:05:43;99431.06;;;-5.34;73.83
69247;BME280;56358;56.328;43.992;2023-02-14T05:07:44;99428.50;;;-5.35;73.86
69247;BME280;56358;56.328;43.992;2023-02-14T05:09:47;99434.63;;;-5.36;73.50
69247;BME280;56358;56.328;43.992;2023-02-14T05:11:47;99429.38;;;-5.36;73.79
69247;BME280;56358;56.328;43.992;2023-02-14T05:13:48;99421.72;;;-5.43;74.09
69247;BME280;56358;56.328;43.992;2023-02-14T05:15:49;99436.28;;;-5.34;73.80
69247;BME280;56358;56.328;43.992;2023-02-14T05:17:49;99449.84;;;-5.21;73.80
69247;BME280;56358;56.328;43.992;2023-02-14T05:19:50;99444.31;;;-5.12;73.78
69247;BME280;56358;56.328;43.992;2023-02-14T05:21:51;99434.13;;;-5.19;73.43
69247;BME280;56358;56.328;43.992;2023-02-14T05:23:51;99373.84;;;-5.43;73.40
69247;BME280;56358;56.328;43.992;2023-02-14T05:25:52;99414.00;;;-5.17;72.90
69247;BME280;56358;56.328;43.992;2023-02-14T05:27:52;99445.63;;;-4.97;72.66
69247;BME280;56358;56.328;43.992;2023-02-14T05:29:53;99446.44;;;-4.95;72.77
69247;BME280;56358;56.328;43.992;2023-02-14T05:31:54;99448.19;;;-4.95;72.36
69247;BME280;56358;56.328;43.992;2023-02-14T05:33:54;99443.88;;;-4.96;72.13
69247;BME280;56358;56.328;43.992;2023-02-14T05:35:58;99453.03;;;-4.83;72.61
69247;BME280;56358;56.328;43.992;2023-02-14T05:37:59;99438.34;;;-4.87;72.39
69247;BME280;56358;56.328;43.992;2023-02-14T05:40:00;99407.31;;;-5.26;71.78
69247;BME280;56358;56.328;43.992;2023-02-14T05:42:00;99452.84;;;-4.77;72.14
69247;BME280;56358;56.328;43.992;2023-02-14T05:44:02;99466.72;;;-4.75;71.93
69247;BME280;56358;56.328;43.992;2023-02-14T05:46:03;99465.88;;;-4.75;71.72
69247;BME280;56358;56.328;43.992;2023-02-14T05:48:03;99408.00;;;-5.19;71.08
69247;BME280;56358;56.328;43.992;2023-02-14T05:50:06;99469.72;;;-4.87;71.17
69247;BME280;56358;56.328;43.992;2023-02-14T05:52:07;99472.38;;;-4.89;71.15
69247;BME280;56358;56.328;43.992;2023-02-14T05:54:08;99386.88;;;-5.42;71.27
69247;BME280;56358;56.328;43.992;2023-02-14T05:56:08;99474.09;;;-4.88;70.92
69247;BME280;56358;56.328;43.992;2023-02-14T05:58:09;99432.97;;;-5.11;71.16
69247;BME280;56358;56.328;43.992;2023-02-14T06:00:12;99447.81;;;-5.11;71.15
69247;BME280;56358;56.328;43.992;2023-02-14T06:02:13;99487.19;;;-4.89;71.29
69247;BME280;56358;56.328;43.992;2023-02-14T06:04:15;99486.59;;;-4.97;70.87
69247;BME280;56358;56.328;43.992;2023-02-14T06:06:15;99476.44;;;-5.08;70.72
69247;BME280;56358;56.328;43.992;2023-02-14T06:08:16;99478.38;;;-5.15;70.76
69247;BME280;56358;56.328;43.992;2023-02-14T06:10:19;99492.28;;;-5.13;70.85
69247;BME280;56358;56.328;43.992;2023-02-14T06:12:20;99500.13;;;-5.13;71.42
69247;BME280;56358;56.328;43.992;2023-02-14T06:14:20;99496.91;;;-5.23;71.09
69247;BME280;56358;56.328;43.992;2023-02-14T06:16:21;99486.44;;;-5.21;71.28
69247;BME280;56358;56.328;43.992;2023-02-14T06:18:22;99487.22;;;-5.19;71.45
69247;BME280;56358;56.328;43.992;2023-02-14T06:20:26;99494.16;;;-5.18;71.19
69247;BME280;56358;56.328;43.992;2023-02-14T06:22:27;99502.69;;;-5.11;71.63
69247;BME280;56358;56.328;43.992;2023-02-14T06:24:28;99489.72;;;-5.14;71.68
69247;BME280;56358;56.328;43.992;2023-02-14T06:26:29;99510.25;;;-5.02;70.92
69247;BME280;56358;56.328;43.992;2023-02-14T06:28:29;99499.13;;;-5.09;71.21
69247;BME280;56358;56.328;43.992;2023-02-14T06:30:30;99504.84;;;-4.96;71.28
69247;BME280;56358;56.328;43.992;2023-02-14T06:32:31;99511.00;;;-4.98;70.81
69247;BME280;56358;56.328;43.992;2023-02-14T06:34:32;99512.59;;;-4.93;71.06
69247;BME280;56358;56.328;43.992;2023-02-14T06:36:33;99512.78;;;-4.99;70.93
69247;BME280;56358;56.328;43.992;2023-02-14T06:38:34;99520.19;;;-4.85;70.96
69247;BME280;56358;56.328;43.992;2023-02-14T06:40:35;99519.06;;;-4.76;71.03
69247;BME280;56358;56.328;43.992;2023-02-14T06:42:35;99481.34;;;-4.97;70.30
69247;BME280;56358;56.328;43.992;2023-02-14T06:44:36;99516.56;;;-4.79;69.80
69247;BME280;56358;56.328;43.992;2023-02-14T06:46:37;99514.03;;;-4.82;69.99
69247;BME280;56358;56.328;43.992;2023-02-14T06:48:37;99508.88;;;-4.85;70.30
69247;BME280;56358;56.328;43.992;2023-02-14T06:50:38;99524.19;;;-4.73;69.87
69247;BME280;56358;56.328;43.992;2023-02-14T06:52:38;99534.22;;;-4.58;70.83
69247;BME280;56358;56.328;43.992;2023-02-14T06:54:41;99514.06;;;-4.56;70.51
69247;BME280;56358;56.328;43.992;2023-02-14T06:56:42;99540.56;;;-4.38;69.87
69247;BME280;56358;56.328;43.992;2023-02-14T06:58:42;99526.53;;;-4.35;69.41
69247;BME280;56358;56.328;43.992;2023-02-14T07:00:43;99526.19;;;-4.25;68.53
69247;BME280;56358;56.328;43.992;2023-02-14T07:02:43;99532.03;;;-4.16;68.57
69247;BME280;56358;56.328;43.992;2023-02-14T07:04:44;99524.38;;;-4.23;68.29
69247;BME280;56358;56.328;43.992;2023-02-14T07:06:45;99541.50;;;-4.12;68.44
69247;BME280;56358;56.328;43.992;2023-02-14T07:08:46;99529.72;;;-4.26;67.99
69247;BME280;56358;56.328;43.992;2023-02-14T07:10:46;99534.53;;;-4.40;67.17
69247;BME280;56358;56.328;43.992;2023-02-14T07:12:47;99549.34;;;-4.39;67.85
69247;BME280;56358;56.328;43.992;2023-02-14T07:14:48;99513.47;;;-4.64;68.91
69247;BME280;56358;56.328;43.992;2023-02-14T07:16:48;99532.91;;;-4.44;68.21
69247;BME280;56358;56.328;43.992;2023-02-14T07:18:49;99547.72;;;-4.43;67.92
69247;BME280;56358;56.328;43.992;2023-02-14T07:20:50;99541.84;;;-4.51;67.53
69247;BME280;56358;56.328;43.992;2023-02-14T07:22:51;99542.00;;;-4.56;67.90
69247;BME280;56358;56.328;43.992;2023-02-14T07:24:52;99502.50;;;-4.75;67.71
69247;BME280;56358;56.328;43.992;2023-02-14T07:26:53;99533.66;;;-4.67;67.74
69247;BME280;56358;56.328;43.992;2023-02-14T07:28:53;99544.13;;;-4.69;67.68
69247;BME280;56358;56.328;43.992;2023-02-14T07:30:54;99544.28;;;-4.74;67.84
69247;BME280;56358;56.328;43.992;2023-02-14T07:32:56;99559.03;;;-4.71;67.92
69247;BME280;56358;56.328;43.992;2023-02-14T07:34:56;99560.91;;;-4.76;68.06
69247;BME280;56358;56.328;43.992;2023-02-14T07:36:57;99563.44;;;-4.73;68.20
69247;BME280;56358;56.328;43.992;2023-02-14T07:38:58;99557.31;;;-4.72;68.03
69247;BME280;56358;56.328;43.992;2023-02-14T07:40:58;99569.44;;;-4.69;67.89
69247;BME280;56358;56.328;43.992;2023-02-14T07:42:59;99561.50;;;-4.66;67.61
69247;BME280;56358;56.328;43.992;2023-02-14T07:45:00;99570.00;;;-4.60;67.76
69247;BME280;56358;56.328;43.992;2023-02-14T07:47:01;99551.75;;;-4.61;67.70
69247;BME280;56358;56.328;43.992;2023-02-14T07:49:01;99570.63;;;-4.51;67.41
69247;BME280;56358;56.328;43.992;2023-02-14T07:51:02;99567.09;;;-4.50;67.47
69247;BME280;56358;56.328;43.992;2023-02-14T07:53:03;99568.88;;;-4.51;67.20
69247;BME280;56358;56.328;43.992;2023-02-14T07:55:03;99531.81;;;-4.65;67.22
69247;BME280;56358;56.328;43.992;2023-02-14T07:57:04;99580.69;;;-4.38;67.16
69247;BME280;56358;56.328;43.992;2023-02-14T07:59:05;99584.31;;;-4.42;66.47
69247;BME280;56358;56.328;43.992;2023-02-14T08:01:06;99552.63;;;-4.61;66.49
69247;BME280;56358;56.328;43.992;2023-02-14T08:03:07;99578.53;;;-4.53;66.38
69247;BME280;56358;56.328;43.992;2023-02-14T08:05:08;99593.09;;;-4.44;66.59
69247;BME280;56358;56.328;43.992;2023-02-14T08:07:09;99597.22;;;-4.37;66.69
69247;BME280;56358;56.328;43.992;2023-02-14T08:09:09;99596.50;;;-4.41;66.56
69247;BME280;56358;56.328;43.992;2023-02-14T08:11:10;99602.13;;;-4.26;66.20
69247;BME280;56358;56.328;43.992;2023-02-14T08:13:11;99499.22;;;-4.82;66.03
69247;BME280;56358;56.328;43.992;2023-02-14T08:15:12;99586.63;;;-4.32;65.63
69247;BME280;56358;56.328;43.992;2023-02-14T08:17:31;99619.69;;;-4.01;65.59
69247;BME280;56358;56.328;43.992;2023-02-14T08:19:32;99621.59;;;-4.07;65.40
69247;BME280;56358;56.328;43.992;2023-02-14T08:21:33;99609.56;;;-4.12;65.58
69247;BME280;56358;56.328;43.992;2023-02-14T08:23:34;99583.53;;;-4.45;65.64
69247;BME280;56358;56.328;43.992;2023-02-14T08:25:35;99616.59;;;-4.14;65.52
69247;BME280;56358;56.328;43.992;2023-02-14T08:27:36;99626.06;;;-4.10;65.43
69247;BME280;56358;56.328;43.992;2023-02-14T08:29:37;99624.56;;;-4.17;65.51
69247;BME280;56358;56.328;43.992;2023-02-14T08:31:37;99640.59;;;-4.00;65.53
69247;BME280;56358;56.328;43.992;2023-02-14T08:33:38;99645.31;;;-3.83;65.06
69247;BME280;56358;56.328;43.992;2023-02-14T08:35:39;99642.22;;;-3.69;65.19
69247;BME280;56358;56.328;43.992;2023-02-14T08:37:40;99633.03;;;-3.56;64.43
69247;BME280;56358;56.328;43.992;2023-02-14T08:39:40;99640.28;;;-3.37;63.97
69247;BME280;56358;56.328;43.992;2023-02-14T08:41:41;99649.44;;;-3.24;63.64
69247;BME280;56358;56.328;43.992;2023-02-14T08:43:42;99647.28;;;-3.12;62.79
69247;BME280;56358;56.328;43.992;2023-02-14T08:45:43;99642.88;;;-3.10;62.31
69247;BME280;56358;56.328;43.992;2023-02-14T08:47:43;99648.06;;;-3.09;62.39
69247;BME280;56358;56.328;43.992;2023-02-14T08:49:44;99647.22;;;-3.11;62.48
69247;BME280;56358;56.328;43.992;2023-02-14T08:51:44;99650.34;;;-2.99;62.55
69247;BME280;56358;56.328;43.992;2023-02-14T08:53:48;99653.50;;;-2.90;62.42
69247;BME280;56358;56.328;43.992;2023-02-14T08:55:50;99646.38;;;-2.86;61.47
69247;BME280;56358;56.328;43.992;2023-02-14T08:57:54;99649.44;;;-2.98;60.78
69247;BME280;56358;56.328;43.992;2023-02-14T08:59:55;99642.47;;;-2.99;61.55
69247;BME280;56358;56.328;43.992;2023-02-14T09:01:56;99643.56;;;-3.05;60.84
69247;BME280;56358;56.328;43.992;2023-02-14T09:03:57;99660.63;;;-2.93;61.16
69247;BME280;56358;56.328;43.992;2023-02-14T09:06:07;99665.44;;;-3.06;60.60
69247;BME280;56358;56.328;43.992;2023-02-14T09:08:08;99655.91;;;-3.09;60.61
69247;BME280;56358;56.328;43.992;2023-02-14T09:10:09;99662.13;;;-3.11;61.13
69247;BME280;56358;56.328;43.992;2023-02-14T09:12:10;99623.16;;;-3.22;61.25
69247;BME280;56358;56.328;43.992;2023-02-14T09:14:11;99595.47;;;-3.29;61.95
69247;BME280;56358;56.328;43.992;2023-02-14T09:16:13;99645.63;;;-2.90;62.04
69247;BME280;56358;56.328;43.992;2023-02-14T09:18:15;99655.63;;;-2.76;62.07
69247;BME280;56358;56.328;43.992;2023-02-14T09:20:16;99675.41;;;-2.67;62.09
69247;BME280;56358;56.328;43.992;2023-02-14T09:22:18;99669.38;;;-2.69;62.73
69247;BME280;56358;56.328;43.992;2023-02-14T09:24:19;99666.78;;;-2.69;62.75
69247;BME280;56358;56.328;43.992;2023-02-14T09:26:21;99662.44;;;-2.70;63.26
69247;BME280;56358;56.328;43.992;2023-02-14T09:28:22;99669.16;;;-2.63;63.53
69247;BME280;56358;56.328;43.992;2023-02-14T09:30:23;99580.78;;;-3.35;63.50
69247;BME280;56358;56.328;43.992;2023-02-14T09:32:23;99678.66;;;-2.84;63.60
69247;BME280;56358;56.328;43.992;2023-02-14T09:34:26;99646.38;;;-3.11;63.45
69247;BME280;56358;56.328;43.992;2023-02-14T09:36:46;99681.56;;;-2.92;63.58
69247;BME280;56358;56.328;43.992;2023-02-14T09:39:05;99692.50;;;-3.06;63.50
69247;BME280;56358;56.328;43.992;2023-02-14T09:41:08;99694.88;;;-2.98;63.69
69247;BME280;56358;56.328;43.992;2023-02-14T09:43:22;99693.72;;;-3.14;64.11
69247;BME280;56358;56.328;43.992;2023-02-14T09:45:31;99704.72;;;-3.05;64.44
69247;BME280;56358;56.328;43.992;2023-02-14T09:49:47;99713.59;;;-3.09;64.71
69247;BME280;56358;56.328;43.992;2023-02-14T09:51:52;99698.91;;;-3.13;64.25
69247;BME280;56358;56.328;43.992;2023-02-14T09:58:17;99717.34;;;-2.91;62.96
69247;BME280;56358;56.328;43.992;2023-02-14T10:00:48;99725.19;;;-2.89;62.75
69247;BME280;56358;56.328;43.992;2023-02-14T10:07:22;99742.16;;;-2.99;62.34
69247;BME280;56358;56.328;43.992;2023-02-14T10:11:53;99705.50;;;-3.28;62.82
69247;BME280;56358;56.328;43.992;2023-02-14T10:14:10;99750.66;;;-2.93;63.04
69247;BME280;56358;56.328;43.992;2023-02-14T10:16:30;99737.44;;;-2.90;62.80
69247;BME280;56358;56.328;43.992;2023-02-14T10:18:51;99750.19;;;-2.79;62.58
69247;BME280;56358;56.328;43.992;2023-02-14T10:20:56;99763.41;;;-2.82;62.71
69247;BME280;56358;56.328;43.992;2023-02-14T10:25:29;99720.53;;;-3.06;62.70
69247;BME280;56358;56.328;43.992;2023-02-14T10:27:38;99774.09;;;-2.88;62.58
69247;BME280;56358;56.328;43.992;2023-02-14T10:29:43;99762.81;;;-2.90;62.85
69247;BME280;56358;56.328;43.992;2023-02-14T10:32:00;99769.03;;;-2.93;63.04
69247;BME280;56358;56.328;43.992;2023-02-14T10:42:52;99770.88;;;-2.96;62.96
69247;BME280;56358;56.328;43.992;2023-02-14T10:45:23;99771.84;;;-2.99;63.03
69247;BME280;56358;56.328;43.992;2023-02-14T10:54:26;99785.00;;;-3.00;63.01
69247;BME280;56358;56.328;43.992;2023-02-14T10:56:33;99751.88;;;-3.30;62.70
69247;BME280;56358;56.328;43.992;2023-02-14T10:58:37;99784.16;;;-3.01;63.21
69247;BME280;56358;56.328;43.992;2023-02-14T11:01:12;99796.97;;;-2.92;63.65
69247;BME280;56358;56.328;43.992;2023-02-14T11:03:11;99800.09;;;-2.80;63.00
69247;BME280;56358;56.328;43.992;2023-02-14T11:05:33;99807.84;;;-2.77;62.61
69247;BME280;56358;56.328;43.992;2023-02-14T11:07:34;99797.31;;;-2.76;62.75
69247;BME280;56358;56.328;43.992;2023-02-14T11:09:34;99804.06;;;-2.68;63.50
69247;BME280;56358;56.328;43.992;2023-02-14T11:11:39;99809.84;;;-2.59;63.00
69247;BME280;56358;56.328;43.992;2023-02-14T11:13:41;99819.59;;;-2.62;62.31
69247;BME280;56358;56.328;43.992;2023-02-14T11:15:45;99825.22;;;-2.73;62.21
69247;BME280;56358;56.328;43.992;2023-02-14T11:18:07;99814.44;;;-2.65;62.06
69247;BME280;56358;56.328;43.992;2023-02-14T11:22:28;99789.84;;;-2.88;62.15
69247;BME280;56358;56.328;43.992;2023-02-14T11:24:37;99834.66;;;-2.67;61.92
69247;BME280;56358;56.328;43.992;2023-02-14T11:26:44;99827.22;;;-2.81;61.90
69247;BME280;56358;56.328;43.992;2023-02-14T11:28:59;99835.97;;;-2.81;61.93
69247;BME280;56358;56.328;43.992;2023-02-14T11:31:00;99836.88;;;-2.82;61.95
69247;BME280;56358;56.328;43.992;2023-02-14T11:33:01;99845.34;;;-3.00;61.90
69247;BME280;56358;56.328;43.992;2023-02-14T11:35:07;99804.00;;;-3.21;61.62
69247;BME280;56358;56.328;43.992;2023-02-14T11:39:35;99842.81;;;-3.04;61.94
69247;BME280;56358;56.328;43.992;2023-02-14T11:41:50;99842.75;;;-3.02;62.13
69247;BME280;56358;56.328;43.992;2023-02-14T11:43:51;99853.19;;;-3.00;62.15
69247;BME280;56358;56.328;43.992;2023-02-14T11:48:27;99863.44;;;-2.93;62.74
69247;BME280;56358;56.328;43.992;2023-02-14T11:50:26;99856.28;;;-2.88;62.95
69247;BME280;56358;56.328;43.992;2023-02-14T11:52:28;99850.22;;;-2.90;62.63
69247;BME280;56358;56.328;43.992;2023-02-14T11:54:38;99861.63;;;-2.91;62.08
69247;BME280;56358;56.328;43.992;2023-02-14T11:57:01;99869.81;;;-3.00;62.43
69247;BME280;56358;56.328;43.992;2023-02-14T11:59:06;99875.84;;;-2.98;63.33
69247;BME280;56358;56.328;43.992;2023-02-14T12:01:11;99875.72;;;-2.93;63.46
69247;BME280;56358;56.328;43.992;2023-02-14T12:03:17;99875.72;;;-2.93;63.36